VOMMVOPB

Guest
Details From VOMM - CHENNAI INTL
To VOPB - PORT BLAIR
Flight Number -
Tags generated
Created
Modified
Stats Distance 743 nm / 1,377 km
Max Altitude 35,000 ft / 10,668 m
Waypoints 6
Social Downloads 1
Likes 0
Share VATSIM

Download

Looking for another format? Having issues loading an existing format? Contact us
Advertisement - Login to hide

Notes

Basic altitude profile: - Ascent Rate: 2500ft/min - Ascent Speed: 250kts - Cruise Altitude: 35000ft - Cruise Speed: 420kts - Descent Rate: 1500ft/min - Descent Speed: 250kts

Route

VOMM MMV P761 PPB VOPB

ID Type Via Altitude Latitude Longitude Leg Dist Tot Dist Heading (true) Name
O VOMM APT - 0 ft / 0 m 12.99386˚ 80.17144˚ - 0 nm - CHENNAI INTL
MMV VOR - 0 ft / 0 m 12.99336˚ 80.17069˚ 0 nm 0 nm 236° / 236° CHENNAI VOR-DME
IDASO FIX P761 (AWY-LO) 35,000 ft / 10,668 m 12.65981˚ 83.55639˚ 199 nm 199 nm 95° / 96° -
SADAP FIX P761 (AWY-HI) 35,000 ft / 10,668 m 12.10156˚ 88.68911˚ 302 nm 502 nm 96° / 97° -
PPB VOR P761 (AWY-HI) 23,000 ft / 7,010 m 11.64967˚ 92.74722˚ 240 nm 742 nm 96° / 97° PORT BLAIR VOR-DME
O VOPB APT - 0 ft / 0 m 11.64116˚ 92.72974˚ 1 nm 743 nm 244° / 244° PORT BLAIR

Altitude Profile

Advertisement - Login to hide

Weather


0- 5 10 15 20 25 30 35+ Temperature / ° C

Clouds and Precipitation
Forecast for 2017-12-18 06:00 UTC. Updated 2 hours ago

Ground ~20,000 ft ~40,000 ft Winds

VOMM

Details ICAO VOMM (MAA)
Name CHENNAI INTL
Region India
Timezone Asia/Kolkata (UTC+5.5)
Stats Elevation 52 ft / 16 m (AMSL)
Location 12.993860° 80.171442°
Runways 2
Magnetic Variation 1.203° W

METAR

VOMM 180630Z 04011G21KT 6000 FEW018 SCT025 30/20 Q1017 NOSIG

Decode

TAF

TAF VOMM 180500Z 1806/1912 04010G20KT 6000 SCT020 BECMG 1812/1813 04010KT BECMG 1818/1820 4000 BR BECMG 1822/1823 VRB03KT TEMPO 1900/1903 2000 BR BECMG 1904/1905 04010G20KT BECMG 1906/1907 6000

Decode

Departure Runways

ID Width Length Bearing (true) Bearing (mag) Surface Threshold Offset Overrun Length
07 148 ft / 45 m 12,003 ft / 3,659 m 68.87° 70.07° Asphalt 0 ft / 0 m 481 ft / 147 m
12 148 ft / 45 m 6,711 ft / 2,046 m 117.77° 118.97° Asphalt 0 ft / 0 m 0 ft / 0 m
25 148 ft / 45 m 12,003 ft / 3,659 m 248.88° 250.08° Asphalt 0 ft / 0 m 492 ft / 150 m
30 148 ft / 45 m 6,711 ft / 2,046 m 297.78° 298.98° Asphalt 1,130 ft / 344 m 0 ft / 0 m

VOPB

Details ICAO VOPB (IXZ)
Name PORT BLAIR
Region India
Timezone Asia/Kolkata (UTC+5.5)
Stats Elevation 14 ft / 4 m (AMSL)
Location 11.641163° 92.729743°
Runways 1
Magnetic Variation 0.804° W

METAR

VOPB 180600Z 05012KT 6000 SCT012 FEW018 BKN090 30/23 Q1013 TEMPO DZ

Decode

TAF

Not found

Destination Runways

ID Width Length Bearing (true) Bearing (mag) Surface Threshold Offset Overrun Length
04 148 ft / 45 m 10,788 ft / 3,288 m 36.21° 37.01° Asphalt 1,960 ft / 597 m 0 ft / 0 m
22 148 ft / 45 m 10,788 ft / 3,288 m 216.21° 217.01° Asphalt 0 ft / 0 m 460 ft / 140 m

Popular Alternatives